Midway, AR (72651)

2:59 AM CDT on March 30, 2017 (GMT -0500)
Wildrose | | Change Station

Elev 899 ft 36.39 °N, 92.46 °W | Updated 9 seconds ago

Mostly Cloudy
Mostly Cloudy
58.5 °F
Feels Like 58.5 °F
N
0.0
Wind Variable Wind from West

Today
High -- | Low -- °F
--% Chance of Precip.
Yesterday
High -- | Low -- °F
Precip. -- in
Pressure 29.62 in
Visibility 10.0 miles
Clouds Mostly Cloudy 2300 ft
Mostly Cloudy 10000 ft
Mostly Cloudy 12000 ft
Dew Point 56 °F
Humidity 91%
Rainfall 0.05 in
Snow Depth Not available.
6:58 AM 7:30 PM
Waxing Crescent, 7% visible
METAR KBPK 300753Z AUTO 21004KT 10SM BKN023 BKN100 BKN120 16/14 A2964 RMK AO2 SLP028 T01560144 PNO $
Pressure 29.62 in
Visibility 10.0 miles
Clouds Mostly Cloudy 2300 ft
Mostly Cloudy 10000 ft
Mostly Cloudy 12000 ft
Dew Point 56 °F
Humidity 91%
Rainfall 0.05 in
Snow Depth Not available.
6:58 AM 7:30 PM
Waxing Crescent, 7% visible
METAR KBPK 300753Z AUTO 21004KT 10SM BKN023 BKN100 BKN120 16/14 A2964 RMK AO2 SLP028 T01560144 PNO $

Get Severe Weather Alerts

Thanks for signing up!

Be on the lookout for a verification email in your inbox.

You'll start receiving the daily forecast at 8 AM.

×

10-Day Weather Forecast

Almanac

Astronomy

Mar. 30, 2017 Rise Set
Actual Time
Civil Twilight
Nautical Twilight
Astronomical Twilight
Moon
Length of Visible Light
Length of Day
Tomorrow will be .
, % of the Moon is Illuminated

Today's Extremes

State Highs State Lows

Community

WunderPhotos

Upload Photos

1,962,540 photos uploaded!

WunderBlog® & News

Nearby

Air Quality

  Air Quality AQ Index Pollutant
Not available.

Snow Depth

Station Depth Elevation

Earthquake Activity

City Distance Mag. Time & Date
Minimum magnitude displayed is 2.5.

Earthquake Activity

City Distance Mag. Time & Date
Minimum magnitude displayed is 2.5.

Coastal Water Temperatures

Place Temperature

Stations

Nearby Weather Stations

Station Location Temp. Windchill Dew Point Humidity Wind Precip. Elev Updated Type
                   

Watches & Warnings

There are currently no watches in effect.